sensor_id;sensor_type;location;lat;lon;timestamp;pressure;altitude;pressure_sealevel;temperature;humidity
72423;BME280;71399;54.146;38.734;2023-08-06T00:00:41;98152.94;;;20.91;100.00
72423;BME280;71399;54.146;38.734;2023-08-06T00:03:07;98152.94;;;20.91;100.00
72423;BME280;71399;54.146;38.734;2023-08-06T00:05:33;98155.97;;;20.89;100.00
72423;BME280;71399;54.146;38.734;2023-08-06T00:07:59;98167.81;;;20.88;100.00
72423;BME280;71399;54.146;38.734;2023-08-06T00:10:25;98167.81;;;20.88;100.00
72423;BME280;71399;54.146;38.734;2023-08-06T00:12:51;98155.50;;;20.87;100.00
72423;BME280;71399;54.146;38.734;2023-08-06T00:15:17;98161.97;;;20.86;100.00
72423;BME280;71399;54.146;38.734;2023-08-06T00:17:43;98168.13;;;20.87;100.00
72423;BME280;71399;54.146;38.734;2023-08-06T00:20:09;98178.50;;;20.88;100.00
72423;BME280;71399;54.146;38.734;2023-08-06T00:22:36;98171.25;;;20.89;100.00
72423;BME280;71399;54.146;38.734;2023-08-06T00:25:02;98175.03;;;20.88;100.00
72423;BME280;71399;54.146;38.734;2023-08-06T00:27:29;98175.72;;;20.85;100.00
72423;BME280;71399;54.146;38.734;2023-08-06T00:29:55;98175.72;;;20.85;100.00
72423;BME280;71399;54.146;38.734;2023-08-06T00:32:21;98176.81;;;20.84;100.00
72423;BME280;71399;54.146;38.734;2023-08-06T00:34:48;98185.19;;;20.82;100.00
72423;BME280;71399;54.146;38.734;2023-08-06T00:37:15;98187.41;;;20.80;100.00
72423;BME280;71399;54.146;38.734;2023-08-06T00:39:42;98182.06;;;20.80;100.00
72423;BME280;71399;54.146;38.734;2023-08-06T00:42:09;98188.06;;;20.77;100.00
72423;BME280;71399;54.146;38.734;2023-08-06T00:44:35;98198.00;;;20.77;100.00
72423;BME280;71399;54.146;38.734;2023-08-06T00:47:02;98193.75;;;20.76;100.00
72423;BME280;71399;54.146;38.734;2023-08-06T00:49:28;98197.06;;;20.72;100.00
72423;BME280;71399;54.146;38.734;2023-08-06T00:51:54;98204.97;;;20.69;100.00
72423;BME280;71399;54.146;38.734;2023-08-06T00:54:20;98208.75;;;20.68;100.00
72423;BME280;71399;54.146;38.734;2023-08-06T00:56:46;98212.56;;;20.67;100.00
72423;BME280;71399;54.146;38.734;2023-08-06T00:59:13;98212.88;;;20.65;100.00
72423;BME280;71399;54.146;38.734;2023-08-06T01:01:39;98207.84;;;20.64;100.00
72423;BME280;71399;54.146;38.734;2023-08-06T01:04:05;98216.97;;;20.63;100.00
72423;BME280;71399;54.146;38.734;2023-08-06T01:09:13;98225.19;;;20.58;100.00
72423;BME280;71399;54.146;38.734;2023-08-06T01:14:16;98232.75;;;20.55;100.00
72423;BME280;71399;54.146;38.734;2023-08-06T01:16:48;98235.75;;;20.54;100.00
72423;BME280;71399;54.146;38.734;2023-08-06T01:19:18;98236.84;;;20.53;100.00
72423;BME280;71399;54.146;38.734;2023-08-06T01:21:44;98235.31;;;20.52;100.00
72423;BME280;71399;54.146;38.734;2023-08-06T01:24:11;98237.66;;;20.53;100.00
72423;BME280;71399;54.146;38.734;2023-08-06T01:29:16;98237.59;;;20.62;100.00
72423;BME280;71399;54.146;38.734;2023-08-06T01:31:43;98242.00;;;20.67;100.00
72423;BME280;71399;54.146;38.734;2023-08-06T01:34:15;98237.22;;;20.72;100.00
72423;BME280;71399;54.146;38.734;2023-08-06T01:36:42;98228.53;;;20.76;100.00
72423;BME280;71399;54.146;38.734;2023-08-06T01:39:09;98226.31;;;20.78;100.00
72423;BME280;71399;54.146;38.734;2023-08-06T01:41:35;98227.56;;;20.80;100.00
72423;BME280;71399;54.146;38.734;2023-08-06T01:44:02;98226.44;;;20.81;100.00
72423;BME280;71399;54.146;38.734;2023-08-06T01:46:29;98222.22;;;20.80;100.00
72423;BME280;71399;54.146;38.734;2023-08-06T01:48:54;98217.84;;;20.76;100.00
72423;BME280;71399;54.146;38.734;2023-08-06T01:51:21;98221.94;;;20.73;100.00
72423;BME280;71399;54.146;38.734;2023-08-06T01:53:46;98234.09;;;20.70;100.00
72423;BME280;71399;54.146;38.734;2023-08-06T01:56:12;98236.66;;;20.67;100.00
72423;BME280;71399;54.146;38.734;2023-08-06T01:58:38;98231.16;;;20.63;100.00
72423;BME280;71399;54.146;38.734;2023-08-06T02:01:04;98236.81;;;20.62;100.00
72423;BME280;71399;54.146;38.734;2023-08-06T02:03:30;98233.03;;;20.63;100.00
72423;BME280;71399;54.146;38.734;2023-08-06T02:05:56;98246.09;;;20.64;100.00
72423;BME280;71399;54.146;38.734;2023-08-06T02:08:22;98243.88;;;20.66;100.00
72423;BME280;71399;54.146;38.734;2023-08-06T02:10:48;98242.47;;;20.69;100.00
72423;BME280;71399;54.146;38.734;2023-08-06T02:13:14;98252.41;;;20.68;100.00
72423;BME280;71399;54.146;38.734;2023-08-06T02:15:44;98242.47;;;20.69;100.00
72423;BME280;71399;54.146;38.734;2023-08-06T02:18:10;98249.38;;;20.70;100.00
72423;BME280;71399;54.146;38.734;2023-08-06T02:20:36;98246.72;;;20.70;100.00
72423;BME280;71399;54.146;38.734;2023-08-06T02:23:02;98253.28;;;20.72;100.00
72423;BME280;71399;54.146;38.734;2023-08-06T02:25:28;98254.06;;;20.73;100.00
72423;BME280;71399;54.146;38.734;2023-08-06T02:27:54;98257.56;;;20.73;100.00
72423;BME280;71399;54.146;38.734;2023-08-06T02:30:20;98240.84;;;20.77;100.00
72423;BME280;71399;54.146;38.734;2023-08-06T02:32:46;98261.25;;;20.81;100.00
72423;BME280;71399;54.146;38.734;2023-08-06T02:35:12;98254.47;;;20.84;100.00
72423;BME280;71399;54.146;38.734;2023-08-06T02:37:38;98245.34;;;20.85;100.00
72423;BME280;71399;54.146;38.734;2023-08-06T02:40:04;98241.97;;;20.88;100.00
72423;BME280;71399;54.146;38.734;2023-08-06T02:42:31;98242.13;;;20.91;100.00
72423;BME280;71399;54.146;38.734;2023-08-06T02:44:57;98234.69;;;20.97;100.00
72423;BME280;71399;54.146;38.734;2023-08-06T02:47:23;98230.38;;;21.05;100.00
72423;BME280;71399;54.146;38.734;2023-08-06T02:49:49;98226.03;;;21.13;100.00
72423;BME280;71399;54.146;38.734;2023-08-06T02:52:16;98225.47;;;21.19;100.00
72423;BME280;71399;54.146;38.734;2023-08-06T02:54:42;98208.09;;;21.25;100.00
72423;BME280;71399;54.146;38.734;2023-08-06T02:57:08;98209.91;;;21.34;100.00
72423;BME280;71399;54.146;38.734;2023-08-06T02:59:35;98197.84;;;21.40;100.00
72423;BME280;71399;54.146;38.734;2023-08-06T03:02:09;98193.53;;;21.48;100.00
72423;BME280;71399;54.146;38.734;2023-08-06T03:04:55;98199.44;;;21.53;100.00
72423;BME280;71399;54.146;38.734;2023-08-06T03:07:24;98189.63;;;21.57;100.00
72423;BME280;71399;54.146;38.734;2023-08-06T03:09:55;98185.97;;;21.62;100.00
72423;BME280;71399;54.146;38.734;2023-08-06T03:12:21;98188.09;;;21.69;100.00
72423;BME280;71399;54.146;38.734;2023-08-06T03:14:48;98179.50;;;21.75;100.00
72423;BME280;71399;54.146;38.734;2023-08-06T03:17:14;98185.50;;;21.84;100.00
72423;BME280;71399;54.146;38.734;2023-08-06T03:19:41;98187.31;;;21.93;100.00
72423;BME280;71399;54.146;38.734;2023-08-06T03:22:08;98179.94;;;22.02;100.00
72423;BME280;71399;54.146;38.734;2023-08-06T03:24:35;98180.91;;;22.10;100.00
72423;BME280;71399;54.146;38.734;2023-08-06T03:27:02;98188.84;;;22.18;100.00
72423;BME280;71399;54.146;38.734;2023-08-06T03:29:29;98185.94;;;22.24;100.00
72423;BME280;71399;54.146;38.734;2023-08-06T03:31:58;98183.16;;;22.32;100.00
72423;BME280;71399;54.146;38.734;2023-08-06T03:34:25;98176.06;;;22.40;100.00
72423;BME280;71399;54.146;38.734;2023-08-06T03:36:51;98170.13;;;22.47;100.00
72423;BME280;71399;54.146;38.734;2023-08-06T03:39:17;98163.75;;;22.51;100.00
72423;BME280;71399;54.146;38.734;2023-08-06T03:41:43;98164.41;;;22.61;100.00
72423;BME280;71399;54.146;38.734;2023-08-06T03:44:09;98153.34;;;22.78;100.00
72423;BME280;71399;54.146;38.734;2023-08-06T03:46:35;98146.28;;;22.86;100.00
72423;BME280;71399;54.146;38.734;2023-08-06T03:49:04;98147.94;;;22.90;100.00
72423;BME280;71399;54.146;38.734;2023-08-06T03:51:30;98150.72;;;22.94;100.00
72423;BME280;71399;54.146;38.734;2023-08-06T03:53:56;98151.22;;;23.00;100.00
72423;BME280;71399;54.146;38.734;2023-08-06T03:56:23;98149.06;;;23.05;100.00
72423;BME280;71399;54.146;38.734;2023-08-06T03:58:49;98138.19;;;23.14;100.00
72423;BME280;71399;54.146;38.734;2023-08-06T04:01:15;98131.75;;;23.19;100.00
72423;BME280;71399;54.146;38.734;2023-08-06T04:03:46;98138.09;;;23.26;100.00
72423;BME280;71399;54.146;38.734;2023-08-06T04:06:12;98139.84;;;23.35;100.00
72423;BME280;71399;54.146;38.734;2023-08-06T04:08:38;98137.25;;;23.38;100.00
72423;BME280;71399;54.146;38.734;2023-08-06T04:11:04;98137.94;;;23.35;100.00
72423;BME280;71399;54.146;38.734;2023-08-06T04:13:30;98131.00;;;23.34;100.00
72423;BME280;71399;54.146;38.734;2023-08-06T04:16:04;98129.44;;;23.33;100.00
72423;BME280;71399;54.146;38.734;2023-08-06T04:18:31;98124.25;;;23.24;100.00
72423;BME280;71399;54.146;38.734;2023-08-06T04:20:57;98132.03;;;23.13;100.00
72423;BME280;71399;54.146;38.734;2023-08-06T04:23:24;98131.94;;;23.10;100.00
72423;BME280;71399;54.146;38.734;2023-08-06T04:25:56;98130.06;;;23.10;100.00
72423;BME280;71399;54.146;38.734;2023-08-06T04:28:23;98117.28;;;23.07;100.00
72423;BME280;71399;54.146;38.734;2023-08-06T04:30:49;98116.81;;;23.05;100.00
72423;BME280;71399;54.146;38.734;2023-08-06T04:33:15;98117.97;;;23.04;100.00
72423;BME280;71399;54.146;38.734;2023-08-06T04:35:41;98114.13;;;23.05;100.00
72423;BME280;71399;54.146;38.734;2023-08-06T04:38:07;98115.72;;;23.06;100.00
72423;BME280;71399;54.146;38.734;2023-08-06T04:40:34;98109.31;;;23.11;100.00
72423;BME280;71399;54.146;38.734;2023-08-06T04:43:00;98118.25;;;23.15;100.00
72423;BME280;71399;54.146;38.734;2023-08-06T04:45:28;98120.78;;;23.24;100.00
72423;BME280;71399;54.146;38.734;2023-08-06T04:47:54;98114.34;;;23.28;100.00
72423;BME280;71399;54.146;38.734;2023-08-06T04:50:20;98113.03;;;23.38;100.00
72423;BME280;71399;54.146;38.734;2023-08-06T04:52:46;98104.44;;;23.48;100.00
72423;BME280;71399;54.146;38.734;2023-08-06T04:55:12;98104.28;;;23.57;100.00
72423;BME280;71399;54.146;38.734;2023-08-06T04:57:38;98104.78;;;23.63;100.00
72423;BME280;71399;54.146;38.734;2023-08-06T05:00:04;98100.72;;;23.69;100.00
72423;BME280;71399;54.146;38.734;2023-08-06T05:02:30;98091.28;;;23.79;100.00
72423;BME280;71399;54.146;38.734;2023-08-06T05:04:58;98096.19;;;23.89;100.00
72423;BME280;71399;54.146;38.734;2023-08-06T05:07:24;98093.63;;;23.96;100.00
72423;BME280;71399;54.146;38.734;2023-08-06T05:09:50;98108.38;;;24.02;100.00
72423;BME280;71399;54.146;38.734;2023-08-06T05:12:16;98112.69;;;24.07;100.00
72423;BME280;71399;54.146;38.734;2023-08-06T05:14:42;98118.22;;;24.14;100.00
72423;BME280;71399;54.146;38.734;2023-08-06T05:17:08;98110.72;;;24.23;100.00
72423;BME280;71399;54.146;38.734;2023-08-06T05:19:34;98110.09;;;24.30;100.00
72423;BME280;71399;54.146;38.734;2023-08-06T05:22:00;98109.50;;;24.40;100.00
72423;BME280;71399;54.146;38.734;2023-08-06T05:24:27;98121.84;;;24.81;100.00
72423;BME280;71399;54.146;38.734;2023-08-06T05:26:53;98164.34;;;25.10;100.00
72423;BME280;71399;54.146;38.734;2023-08-06T05:29:19;98168.63;;;25.11;100.00
72423;BME280;71399;54.146;38.734;2023-08-06T05:31:45;98138.47;;;25.06;100.00
72423;BME280;71399;54.146;38.734;2023-08-06T05:34:11;98134.16;;;25.01;100.00
72423;BME280;71399;54.146;38.734;2023-08-06T05:36:37;98115.22;;;24.98;100.00
72423;BME280;71399;54.146;38.734;2023-08-06T05:39:03;98128.94;;;25.12;100.00
72423;BME280;71399;54.146;38.734;2023-08-06T05:41:29;98149.47;;;25.40;100.00
72423;BME280;71399;54.146;38.734;2023-08-06T05:43:55;98173.13;;;25.73;100.00
72423;BME280;71399;54.146;38.734;2023-08-06T05:46:21;98191.25;;;25.99;100.00
72423;BME280;71399;54.146;38.734;2023-08-06T05:48:47;98211.09;;;26.11;100.00
72423;BME280;71399;54.146;38.734;2023-08-06T05:51:13;98209.34;;;26.22;100.00
72423;BME280;71399;54.146;38.734;2023-08-06T05:53:39;98215.16;;;26.54;100.00
72423;BME280;71399;54.146;38.734;2023-08-06T05:56:05;98305.56;;;27.21;100.00
72423;BME280;71399;54.146;38.734;2023-08-06T05:58:31;98339.66;;;27.60;100.00
72423;BME280;71399;54.146;38.734;2023-08-06T06:00:57;98412.72;;;27.60;100.00
72423;BME280;71399;54.146;38.734;2023-08-06T06:03:23;98432.19;;;27.69;100.00
72423;BME280;71399;54.146;38.734;2023-08-06T06:05:49;98441.09;;;27.73;100.00
72423;BME280;71399;54.146;38.734;2023-08-06T06:08:15;98480.28;;;27.83;100.00
72423;BME280;71399;54.146;38.734;2023-08-06T06:10:41;98520.13;;;27.82;100.00
72423;BME280;71399;54.146;38.734;2023-08-06T06:13:07;98519.94;;;27.98;100.00
72423;BME280;71399;54.146;38.734;2023-08-06T06:15:33;98454.59;;;28.00;100.00
72423;BME280;71399;54.146;38.734;2023-08-06T06:17:59;98500.09;;;27.87;100.00
72423;BME280;71399;54.146;38.734;2023-08-06T06:20:25;98537.81;;;27.72;100.00
72423;BME280;71399;54.146;38.734;2023-08-06T06:22:51;98475.78;;;27.60;100.00
72423;BME280;71399;54.146;38.734;2023-08-06T06:25:17;98431.59;;;27.52;100.00
72423;BME280;71399;54.146;38.734;2023-08-06T06:27:43;98409.06;;;27.45;100.00
72423;BME280;71399;54.146;38.734;2023-08-06T06:30:09;98419.13;;;27.44;100.00
72423;BME280;71399;54.146;38.734;2023-08-06T06:32:37;98459.72;;;27.44;100.00
72423;BME280;71399;54.146;38.734;2023-08-06T06:35:03;98386.38;;;27.53;100.00
72423;BME280;71399;54.146;38.734;2023-08-06T06:37:29;98454.19;;;27.67;100.00
72423;BME280;71399;54.146;38.734;2023-08-06T06:39:55;98452.41;;;27.79;100.00
72423;BME280;71399;54.146;38.734;2023-08-06T06:42:21;98442.41;;;27.86;100.00
72423;BME280;71399;54.146;38.734;2023-08-06T06:44:51;98450.16;;;27.88;100.00
72423;BME280;71399;54.146;38.734;2023-08-06T06:47:17;98559.34;;;27.92;100.00
72423;BME280;71399;54.146;38.734;2023-08-06T06:49:43;98527.31;;;27.98;100.00
72423;BME280;71399;54.146;38.734;2023-08-06T06:52:09;98573.75;;;28.00;100.00
72423;BME280;71399;54.146;38.734;2023-08-06T06:54:35;98614.81;;;28.02;100.00
72423;BME280;71399;54.146;38.734;2023-08-06T06:57:01;98595.41;;;28.00;100.00
72423;BME280;71399;54.146;38.734;2023-08-06T06:59:27;98628.41;;;28.05;100.00
72423;BME280;71399;54.146;38.734;2023-08-06T07:01:53;98516.97;;;28.07;100.00
72423;BME280;71399;54.146;38.734;2023-08-06T07:04:19;98590.88;;;28.07;100.00
72423;BME280;71399;54.146;38.734;2023-08-06T07:06:45;98595.50;;;28.03;100.00
72423;BME280;71399;54.146;38.734;2023-08-06T07:09:11;98651.16;;;28.01;100.00
72423;BME280;71399;54.146;38.734;2023-08-06T07:11:37;98551.31;;;27.99;100.00
72423;BME280;71399;54.146;38.734;2023-08-06T07:14:03;98511.47;;;28.00;100.00
72423;BME280;71399;54.146;38.734;2023-08-06T07:16:29;98597.03;;;28.04;100.00
72423;BME280;71399;54.146;38.734;2023-08-06T07:18:55;98599.06;;;28.11;100.00
72423;BME280;71399;54.146;38.734;2023-08-06T07:21:21;98589.81;;;28.16;100.00
72423;BME280;71399;54.146;38.734;2023-08-06T07:23:47;98549.25;;;28.23;100.00
72423;BME280;71399;54.146;38.734;2023-08-06T07:26:15;98572.56;;;28.31;100.00
72423;BME280;71399;54.146;38.734;2023-08-06T07:28:41;98555.25;;;28.39;100.00
72423;BME280;71399;54.146;38.734;2023-08-06T07:31:07;98619.97;;;28.44;100.00
72423;BME280;71399;54.146;38.734;2023-08-06T07:33:33;98548.41;;;28.53;100.00
72423;BME280;71399;54.146;38.734;2023-08-06T07:35:59;98569.06;;;28.64;100.00
72423;BME280;71399;54.146;38.734;2023-08-06T07:38:25;98566.13;;;28.80;100.00
72423;BME280;71399;54.146;38.734;2023-08-06T07:40:51;98570.28;;;29.15;100.00
72423;BME280;71399;54.146;38.734;2023-08-06T07:43:17;98720.97;;;29.43;100.00
72423;BME280;71399;54.146;38.734;2023-08-06T07:45:43;98699.47;;;29.72;100.00
72423;BME280;71399;54.146;38.734;2023-08-06T07:48:09;98740.75;;;29.88;100.00
72423;BME280;71399;54.146;38.734;2023-08-06T07:50:35;98810.66;;;29.95;100.00
72423;BME280;71399;54.146;38.734;2023-08-06T07:53:01;99046.66;;;29.97;100.00
72423;BME280;71399;54.146;38.734;2023-08-06T07:55:27;99176.63;;;29.91;100.00
72423;BME280;71399;54.146;38.734;2023-08-06T07:57:53;99118.31;;;29.85;100.00
72423;BME280;71399;54.146;38.734;2023-08-06T08:00:19;99171.84;;;29.81;100.00
72423;BME280;71399;54.146;38.734;2023-08-06T08:02:45;99159.44;;;29.83;100.00
72423;BME280;71399;54.146;38.734;2023-08-06T08:05:11;99148.91;;;29.78;100.00
72423;BME280;71399;54.146;38.734;2023-08-06T08:07:37;99191.38;;;29.67;100.00
72423;BME280;71399;54.146;38.734;2023-08-06T08:10:04;99119.84;;;29.55;100.00
72423;BME280;71399;54.146;38.734;2023-08-06T08:12:30;99188.03;;;29.50;100.00
72423;BME280;71399;54.146;38.734;2023-08-06T08:14:56;99208.97;;;29.50;100.00
72423;BME280;71399;54.146;38.734;2023-08-06T08:17:22;99181.03;;;29.49;100.00
72423;BME280;71399;54.146;38.734;2023-08-06T08:19:48;99137.69;;;29.56;100.00
72423;BME280;71399;54.146;38.734;2023-08-06T08:22:14;99180.47;;;29.63;100.00
72423;BME280;71399;54.146;38.734;2023-08-06T08:24:40;99182.91;;;29.72;100.00
72423;BME280;71399;54.146;38.734;2023-08-06T08:27:06;99195.34;;;29.73;100.00
72423;BME280;71399;54.146;38.734;2023-08-06T08:29:32;99186.19;;;29.81;100.00
72423;BME280;71399;54.146;38.734;2023-08-06T08:31:58;99231.38;;;29.93;100.00
72423;BME280;71399;54.146;38.734;2023-08-06T08:34:24;99260.34;;;30.08;100.00
72423;BME280;71399;54.146;38.734;2023-08-06T08:36:50;99237.94;;;30.19;100.00
72423;BME280;71399;54.146;38.734;2023-08-06T08:39:16;99241.66;;;30.34;100.00
72423;BME280;71399;54.146;38.734;2023-08-06T08:41:42;99239.81;;;30.38;100.00
72423;BME280;71399;54.146;38.734;2023-08-06T08:44:09;99240.66;;;30.45;100.00
72423;BME280;71399;54.146;38.734;2023-08-06T08:46:38;99282.38;;;30.57;100.00
72423;BME280;71399;54.146;38.734;2023-08-06T08:49:05;99276.72;;;30.69;100.00
72423;BME280;71399;54.146;38.734;2023-08-06T08:51:32;99279.88;;;30.75;100.00
72423;BME280;71399;54.146;38.734;2023-08-06T08:53:59;99250.00;;;30.78;100.00
72423;BME280;71399;54.146;38.734;2023-08-06T08:56:28;99217.41;;;30.85;100.00
72423;BME280;71399;54.146;38.734;2023-08-06T08:58:54;99266.19;;;30.98;100.00
72423;BME280;71399;54.146;38.734;2023-08-06T09:01:23;99268.19;;;31.01;100.00
72423;BME280;71399;54.146;38.734;2023-08-06T09:03:50;99263.91;;;31.03;100.00
72423;BME280;71399;54.146;38.734;2023-08-06T09:06:17;99267.56;;;31.18;100.00
72423;BME280;71399;54.146;38.734;2023-08-06T09:09:05;99268.84;;;31.28;100.00
72423;BME280;71399;54.146;38.734;2023-08-06T09:11:34;99279.00;;;31.35;100.00
72423;BME280;71399;54.146;38.734;2023-08-06T09:14:08;99261.88;;;31.31;100.00
72423;BME280;71399;54.146;38.734;2023-08-06T09:16:37;99271.94;;;31.27;100.00
72423;BME280;71399;54.146;38.734;2023-08-06T09:19:07;99284.78;;;31.26;100.00
72423;BME280;71399;54.146;38.734;2023-08-06T09:21:35;99304.25;;;31.32;100.00
72423;BME280;71399;54.146;38.734;2023-08-06T09:24:05;99329.59;;;31.36;100.00
72423;BME280;71399;54.146;38.734;2023-08-06T09:26:33;99315.69;;;31.45;100.00
72423;BME280;71399;54.146;38.734;2023-08-06T09:28:59;99312.59;;;31.46;100.00
72423;BME280;71399;54.146;38.734;2023-08-06T09:31:32;99323.44;;;31.43;100.00
72423;BME280;71399;54.146;38.734;2023-08-06T09:33:59;99317.19;;;31.42;100.00
72423;BME280;71399;54.146;38.734;2023-08-06T09:36:25;99312.59;;;31.46;100.00
72423;BME280;71399;54.146;38.734;2023-08-06T09:38:51;99311.38;;;31.44;100.00
72423;BME280;71399;54.146;38.734;2023-08-06T09:41:26;99308.66;;;31.44;100.00
72423;BME280;71399;54.146;38.734;2023-08-06T09:43:54;99315.66;;;31.41;100.00
72423;BME280;71399;54.146;38.734;2023-08-06T09:46:20;99330.03;;;31.42;100.00
72423;BME280;71399;54.146;38.734;2023-08-06T09:48:47;99318.78;;;31.43;100.00
72423;BME280;71399;54.146;38.734;2023-08-06T09:51:14;99346.72;;;31.36;100.00
72423;BME280;71399;54.146;38.734;2023-08-06T09:53:41;99311.66;;;31.31;100.00
72423;BME280;71399;54.146;38.734;2023-08-06T09:56:08;99302.25;;;31.25;100.00
72423;BME280;71399;54.146;38.734;2023-08-06T09:58:36;99309.59;;;31.21;100.00
72423;BME280;71399;54.146;38.734;2023-08-06T10:01:02;99307.25;;;31.19;100.00
72423;BME280;71399;54.146;38.734;2023-08-06T10:03:29;99298.00;;;31.28;100.00
72423;BME280;71399;54.146;38.734;2023-08-06T10:05:56;99273.56;;;31.35;100.00
72423;BME280;71399;54.146;38.734;2023-08-06T10:08:23;99275.59;;;31.45;100.00
72423;BME280;71399;54.146;38.734;2023-08-06T10:10:49;99282.66;;;31.50;100.00
72423;BME280;71399;54.146;38.734;2023-08-06T10:13:15;99265.97;;;31.51;100.00
72423;BME280;71399;54.146;38.734;2023-08-06T10:15:43;99266.31;;;31.50;100.00
72423;BME280;71399;54.146;38.734;2023-08-06T10:18:09;99264.72;;;31.45;100.00
72423;BME280;71399;54.146;38.734;2023-08-06T10:20:37;99281.41;;;31.44;100.00
72423;BME280;71399;54.146;38.734;2023-08-06T10:23:04;99267.00;;;31.39;100.00
72423;BME280;71399;54.146;38.734;2023-08-06T10:25:34;99277.91;;;31.43;100.00
72423;BME280;71399;54.146;38.734;2023-08-06T10:28:01;99268.97;;;31.43;100.00
72423;BME280;71399;54.146;38.734;2023-08-06T10:30:33;99270.47;;;31.36;100.00
72423;BME280;71399;54.146;38.734;2023-08-06T10:33:00;99247.56;;;31.41;100.00
72423;BME280;71399;54.146;38.734;2023-08-06T10:35:36;99264.19;;;31.32;100.00
72423;BME280;71399;54.146;38.734;2023-08-06T10:38:12;99249.03;;;31.31;100.00
72423;BME280;71399;54.146;38.734;2023-08-06T10:40:40;99256.44;;;31.31;100.00
72423;BME280;71399;54.146;38.734;2023-08-06T10:43:06;99269.25;;;31.34;100.00
72423;BME280;71399;54.146;38.734;2023-08-06T10:45:34;99273.50;;;31.28;100.00
72423;BME280;71399;54.146;38.734;2023-08-06T10:48:01;99259.06;;;31.24;100.00
72423;BME280;71399;54.146;38.734;2023-08-06T10:50:27;99244.72;;;31.30;100.00
72423;BME280;71399;54.146;38.734;2023-08-06T10:52:53;99234.59;;;31.27;100.00
72423;BME280;71399;54.146;38.734;2023-08-06T10:55:26;99235.38;;;31.28;100.00
72423;BME280;71399;54.146;38.734;2023-08-06T10:57:52;99229.19;;;31.31;100.00
72423;BME280;71399;54.146;38.734;2023-08-06T11:00:18;99241.63;;;31.32;100.00
72423;BME280;71399;54.146;38.734;2023-08-06T11:02:44;99232.34;;;31.36;100.00
72423;BME280;71399;54.146;38.734;2023-08-06T11:05:12;99242.03;;;31.34;100.00
72423;BME280;71399;54.146;38.734;2023-08-06T11:07:38;99242.81;;;31.31;100.00
72423;BME280;71399;54.146;38.734;2023-08-06T11:10:06;99243.22;;;31.33;100.00
72423;BME280;71399;54.146;38.734;2023-08-06T11:12:32;99227.66;;;31.33;100.00
72423;BME280;71399;54.146;38.734;2023-08-06T11:14:59;99224.19;;;31.36;100.00
72423;BME280;71399;54.146;38.734;2023-08-06T11:17:27;99239.75;;;31.39;100.00
72423;BME280;71399;54.146;38.734;2023-08-06T11:19:53;99209.81;;;31.39;100.00
72423;BME280;71399;54.146;38.734;2023-08-06T11:22:22;99228.50;;;31.41;100.00
72423;BME280;71399;54.146;38.734;2023-08-06T11:24:48;99241.69;;;31.39;100.00
72423;BME280;71399;54.146;38.734;2023-08-06T11:27:15;99234.63;;;31.31;100.00
72423;BME280;71399;54.146;38.734;2023-08-06T11:29:42;99223.69;;;31.27;100.00
72423;BME280;71399;54.146;38.734;2023-08-06T11:32:08;99208.03;;;31.13;100.00
72423;BME280;71399;54.146;38.734;2023-08-06T11:34:35;99211.50;;;31.14;100.00
72423;BME280;71399;54.146;38.734;2023-08-06T11:37:04;99206.03;;;31.10;100.00
72423;BME280;71399;54.146;38.734;2023-08-06T11:39:34;99212.56;;;31.02;100.00
72423;BME280;71399;54.146;38.734;2023-08-06T11:42:02;99207.88;;;30.99;100.00
72423;BME280;71399;54.146;38.734;2023-08-06T11:44:32;99200.53;;;31.03;100.00
72423;BME280;71399;54.146;38.734;2023-08-06T11:47:02;99191.97;;;31.01;100.00
72423;BME280;71399;54.146;38.734;2023-08-06T11:49:39;99211.41;;;30.99;100.00
72423;BME280;71399;54.146;38.734;2023-08-06T11:54:36;99187.66;;;31.00;100.00
72423;BME280;71399;54.146;38.734;2023-08-06T11:57:05;99188.06;;;31.02;100.00
72423;BME280;71399;54.146;38.734;2023-08-06T11:59:31;99195.47;;;31.01;100.00
72423;BME280;71399;54.146;38.734;2023-08-06T12:01:57;99200.94;;;31.05;100.00
72423;BME280;71399;54.146;38.734;2023-08-06T12:04:23;99192.41;;;31.07;100.00
72423;BME280;71399;54.146;38.734;2023-08-06T12:06:49;99182.66;;;31.06;100.00
72423;BME280;71399;54.146;38.734;2023-08-06T12:09:15;99200.94;;;31.05;100.00
72423;BME280;71399;54.146;38.734;2023-08-06T12:11:41;99192.78;;;31.05;100.00
72423;BME280;71399;54.146;38.734;2023-08-06T12:14:07;99187.69;;;31.03;100.00
72423;BME280;71399;54.146;38.734;2023-08-06T12:16:34;99173.69;;;31.01;100.00
72423;BME280;71399;54.146;38.734;2023-08-06T12:19:01;99165.16;;;31.03;100.00
72423;BME280;71399;54.146;38.734;2023-08-06T12:21:27;99163.28;;;31.11;100.00
72423;BME280;71399;54.146;38.734;2023-08-06T12:23:53;99172.28;;;31.18;100.00
72423;BME280;71399;54.146;38.734;2023-08-06T12:26:19;99142.28;;;31.11;100.00
72423;BME280;71399;54.146;38.734;2023-08-06T12:28:45;99163.22;;;31.07;100.00
72423;BME280;71399;54.146;38.734;2023-08-06T12:31:11;99159.31;;;31.01;100.00
72423;BME280;71399;54.146;38.734;2023-08-06T12:33:37;99157.31;;;30.94;100.00
72423;BME280;71399;54.146;38.734;2023-08-06T12:36:03;99140.13;;;30.90;100.00
72423;BME280;71399;54.146;38.734;2023-08-06T12:38:29;99154.13;;;30.92;100.00
72423;BME280;71399;54.146;38.734;2023-08-06T12:40:59;99147.59;;;30.97;100.00
72423;BME280;71399;54.146;38.734;2023-08-06T12:43:25;99133.63;;;30.98;100.00
72423;BME280;71399;54.146;38.734;2023-08-06T12:45:51;99145.28;;;30.99;100.00
72423;BME280;71399;54.146;38.734;2023-08-06T12:48:17;99117.75;;;31.04;100.00